地図

経路データ

SID SEASON NUMBER BASIN SUBBASIN NAME ISO_TIME NATURE LAT LON WMO_WIND WMO_PRES WMO_AGENCY TRACK_TYPE DIST2LAND LANDFALL IFLAG USA_AGENCY USA_ATCF_ID USA_LAT USA_LON USA_RECORD USA_STATUS USA_WIND USA_PRES USA_SSHS USA_R34_NE USA_R34_SE USA_R34_SW USA_R34_NW USA_R50_NE USA_R50_SE USA_R50_SW USA_R50_NW USA_R64_NE USA_R64_SE USA_R64_SW USA_R64_NW USA_POCI USA_ROCI USA_RMW USA_EYE TOKYO_LAT TOKYO_LON TOKYO_GRADE TOKYO_WIND TOKYO_PRES TOKYO_R50_DIR TOKYO_R50_LONG TOKYO_R50_SHORT TOKYO_R30_DIR TOKYO_R30_LONG TOKYO_R30_SHORT TOKYO_LAND CMA_LAT CMA_LON CMA_CAT CMA_WIND CMA_PRES HKO_LAT HKO_LON HKO_CAT HKO_WIND HKO_PRES NEWDELHI_LAT NEWDELHI_LON NEWDELHI_GRADE NEWDELHI_WIND NEWDELHI_PRES NEWDELHI_CI NEWDELHI_DP NEWDELHI_POCI REUNION_LAT REUNION_LON REUNION_TYPE REUNION_WIND REUNION_PRES REUNION_TNUM REUNION_CI REUNION_RMW REUNION_R34_NE REUNION_R34_SE REUNION_R34_SW REUNION_R34_NW REUNION_R50_NE REUNION_R50_SE REUNION_R50_SW REUNION_R50_NW REUNION_R64_NE REUNION_R64_SE REUNION_R64_SW REUNION_R64_NW BOM_LAT BOM_LON BOM_TYPE BOM_WIND BOM_PRES BOM_TNUM BOM_CI BOM_RMW BOM_R34_NE BOM_R34_SE BOM_R34_SW BOM_R34_NW BOM_R50_NE BOM_R50_SE BOM_R50_SW BOM_R50_NW BOM_R64_NE BOM_R64_SE BOM_R64_SW BOM_R64_NW BOM_ROCI BOM_POCI BOM_EYE BOM_POS_METHOD BOM_PRES_METHOD NADI_LAT NADI_LON NADI_CAT NADI_WIND NADI_PRES WELLINGTON_LAT WELLINGTON_LON WELLINGTON_WIND WELLINGTON_PRES DS824_LAT DS824_LON DS824_STAGE DS824_WIND DS824_PRES TD9636_LAT TD9636_LON TD9636_STAGE TD9636_WIND TD9636_PRES TD9635_LAT TD9635_LON TD9635_WIND TD9635_PRES TD9635_ROCI NEUMANN_LAT NEUMANN_LON NEUMANN_CLASS NEUMANN_WIND NEUMANN_PRES MLC_LAT MLC_LON MLC_CLASS MLC_WIND MLC_PRES USA_GUST BOM_GUST BOM_GUST_PER REUNION_GUST REUNION_GUST_PER USA_SEAHGT USA_SEARAD_NE USA_SEARAD_SE USA_SEARAD_SW USA_SEARAD_NW STORM_SPEED STORM_DIR
1951224N12316 1951 57 NA NA CHARLIE 1951-08-12 00:00:00 TS 12.1000 -44.1000 30 hurdat_atl main 1179 1136 O_____________ hurdat_atl AL041951 12.1000 -44.1000 TD 30 -1 12 269
1951224N12316 1951 57 NA NA CHARLIE 1951-08-12 03:00:00 TS 12.0928 -44.7250 main 1136 1095 P_____________ AL041951 12.0928 -44.7250 TD 30 -1 12 270
1951224N12316 1951 57 NA NA CHARLIE 1951-08-12 06:00:00 TS 12.1000 -45.3000 30 hurdat_atl main 1095 1063 O_____________ hurdat_atl AL041951 12.1000 -45.3000 TD 30 -1 10 272
1951224N12316 1951 57 NA NA CHARLIE 1951-08-12 09:00:00 TS 12.1349 -45.7875 main 1063 1047 P_____________ AL041951 12.1349 -45.7875 TD 30 -1 9 276
1951224N12316 1951 57 NA NA CHARLIE 1951-08-12 12:00:00 TS 12.2000 -46.2000 30 hurdat_atl main 1047 1036 O_____________ hurdat_atl AL041951 12.2000 -46.2000 TD 30 -1 8 282
1951224N12316 1951 57 NA NA CHARLIE 1951-08-12 15:00:00 TS 12.2924 -46.5650 main 1033 1021 P_____________ AL041951 12.2924 -46.5650 TD 30 -1 7 286
1951224N12316 1951 57 NA NA CHARLIE 1951-08-12 18:00:00 TS 12.4000 -46.9000 30 hurdat_atl main 1021 1007 O_____________ hurdat_atl AL041951 12.4000 -46.9000 TD 30 -1 7 288
1951224N12316 1951 57 NA NA CHARLIE 1951-08-12 21:00:00 TS 12.5074 -47.2425 main 1010 994 P_____________ AL041951 12.5074 -47.2425 TD 30 -1 7 286
1951224N12316 1951 57 NA NA CHARLIE 1951-08-13 00:00:00 TS 12.6000 -47.6000 30 hurdat_atl main 994 976 O_____________ hurdat_atl AL041951 12.6000 -47.6000 TD 30 -1 7 282
1951224N12316 1951 57 NA NA CHARLIE 1951-08-13 03:00:00 TS 12.6575 -47.9925 main 980 958 P_____________ AL041951 12.6575 -47.9925 TD 30 -1 8 277
1951224N12316 1951 57 NA NA CHARLIE 1951-08-13 06:00:00 TS 12.7000 -48.4000 30 hurdat_atl main 958 938 O_____________ hurdat_atl AL041951 12.7000 -48.4000 TD 30 -1 8 277
1951224N12316 1951 57 NA NA CHARLIE 1951-08-13 09:00:00 TS 12.7499 -48.8000 main 938 928 P_____________ AL041951 12.7499 -48.8000 TD 30 -1 8 277
1951224N12316 1951 57 NA NA CHARLIE 1951-08-13 12:00:00 TS 12.8000 -49.2000 30 hurdat_atl main 928 910 O_____________ hurdat_atl AL041951 12.8000 -49.2000 TD 30 -1 8 277
1951224N12316 1951 57 NA NA CHARLIE 1951-08-13 15:00:00 TS 12.8499 -49.6000 main 910 905 P_____________ AL041951 12.8499 -49.6000 TD 30 -1 8 277
1951224N12316 1951 57 NA NA CHARLIE 1951-08-13 18:00:00 TS 12.9000 -50.0000 30 hurdat_atl main 905 888 O_____________ hurdat_atl AL041951 12.9000 -50.0000 TD 30 -1 8 277
1951224N12316 1951 57 NA NA CHARLIE 1951-08-13 21:00:00 TS 12.9424 -50.4001 main 888 878 P_____________ AL041951 12.9424 -50.4001 TD 32 -1 8 277
1951224N12316 1951 57 NA NA CHARLIE 1951-08-14 00:00:00 TS 13.0000 -50.8000 35 hurdat_atl main 878 869 O_____________ hurdat_atl AL041951 13.0000 -50.8000 TS 35 0 8 281
1951224N12316 1951 57 NA NA CHARLIE 1951-08-14 03:00:00 TS 13.0924 -51.2000 main 871 863 P_____________ AL041951 13.0924 -51.2000 TS 37 0 8 284
1951224N12316 1951 57 NA NA CHARLIE 1951-08-14 06:00:00 TS 13.2000 -51.6000 40 hurdat_atl main 865 859 O_____________ hurdat_atl AL041951 13.2000 -51.6000 TS 40 0 8 285
1951224N12316 1951 57 NA NA CHARLIE 1951-08-14 09:00:00 TS 13.2998 -51.9701 main 863 857 P_____________ AL041951 13.2998 -51.9701 TS 40 0 8 284
1951224N12316 1951 57 NA NA CHARLIE 1951-08-14 12:00:00 TS 13.4000 -52.4000 40 hurdat_atl main 862 858 O_____________ hurdat_atl AL041951 13.4000 -52.4000 TS 40 0 10 282
1951224N12316 1951 57 NA NA CHARLIE 1951-08-14 15:00:00 TS 13.4997 -52.9326 main 863 858 P_____________ AL041951 13.4997 -52.9326 TS 40 0 12 280
1951224N12316 1951 57 NA NA CHARLIE 1951-08-14 18:00:00 TS 13.6000 -53.6000 40 hurdat_atl main 861 792 O_____________ hurdat_atl AL041951 13.6000 -53.6000 TS 40 0 14 278
1951224N12316 1951 57 NA NA CHARLIE 1951-08-14 21:00:00 TS 13.6925 -54.4052 main 792 719 P_____________ AL041951 13.6925 -54.4052 TS 42 0 17 277
1951224N12316 1951 57 NA NA CHARLIE 1951-08-15 00:00:00 TS 13.8000 -55.3000 45 hurdat_atl main 710 641 O_____________ hurdat_atl AL041951 13.8000 -55.3000 TS 45 0 18 278
1951224N12316 1951 57 NA NA CHARLIE 1951-08-15 03:00:00 TS 13.9423 -56.1925 main 632 577 P_____________ AL041951 13.9423 -56.1925 TS 47 0 18 280
1951224N12316 1951 57 NA NA CHARLIE 1951-08-15 06:00:00 TS 14.1000 -57.1000 50 hurdat_atl main 569 509 O_____________ hurdat_atl AL041951 14.1000 -57.1000 TS 50 0 18 280
1951224N12316 1951 57 NA NA CHARLIE 1951-08-15 09:00:00 TS 14.2422 -58.0002 main 509 472 P_____________ AL041951 14.2422 -58.0002 TS 52 0 18 280
1951224N12316 1951 57 NA NA CHARLIE 1951-08-15 12:00:00 TS 14.4000 -58.9000 55 999 hurdat_atl main 472 451 O_____________ hurdat_atl AL041951 14.4000 -58.9000 TS 55 999 0 18 281
1951224N12316 1951 57 NA CS CHARLIE 1951-08-15 15:00:00 TS 14.5921 -59.7926 main 455 450 P_____________ AL041951 14.5921 -59.7926 TS 57 0 18 283
1951224N12316 1951 57 NA CS CHARLIE 1951-08-15 18:00:00 TS 14.8000 -60.7000 60 hurdat_atl main 460 459 O_____________ hurdat_atl AL041951 14.8000 -60.7000 TS 60 0 18 283
1951224N12316 1951 57 NA CS CHARLIE 1951-08-15 21:00:00 TS 14.9996 -61.6352 main 481 470 P_____________ AL041951 14.9996 -61.6352 TS 60 0 19 282
1951224N12316 1951 57 NA CS CHARLIE 1951-08-16 00:00:00 TS 15.2000 -62.6000 60 hurdat_atl main 463 380 O_____________ hurdat_atl AL041951 15.2000 -62.6000 TS 60 0 19 282
1951224N12316 1951 57 NA CS CHARLIE 1951-08-16 03:00:00 TS 15.4070 -63.5851 main 373 302 P_____________ AL041951 15.4070 -63.5851 TS 62 0 20 282
1951224N12316 1951 57 NA CS CHARLIE 1951-08-16 06:00:00 TS 15.6000 -64.6000 65 hurdat_atl main 297 254 O_____________ hurdat_atl AL041951 15.6000 -64.6000 HU 65 1 20 280
1951224N12316 1951 57 NA CS CHARLIE 1951-08-16 09:00:00 TS 15.7573 -65.6577 main 240 224 P_____________ AL041951 15.7573 -65.6577 HU 65 1 20 278
1951224N12316 1951 57 NA CS CHARLIE 1951-08-16 12:00:00 TS 15.9000 -66.7000 65 992 hurdat_atl main 224 205 O_____________ hurdat_atl AL041951 15.9000 -66.7000 HU 65 992 1 20 279
1951224N12316 1951 57 NA CS CHARLIE 1951-08-16 15:00:00 TS 16.0647 -67.6874 main 208 208 P_____________ AL041951 16.0647 -67.6874 HU 67 1 19 279
1951224N12316 1951 57 NA CS CHARLIE 1951-08-16 18:00:00 TS 16.2000 -68.6000 70 hurdat_atl main 223 216 O_____________ hurdat_atl AL041951 16.2000 -68.6000 HU 70 1 17 277
1951224N12316 1951 57 NA CS CHARLIE 1951-08-16 21:00:00 TS 16.2645 -69.4302 main 221 193 P_____________ AL041951 16.2645 -69.4302 HU 72 1 15 274
1951224N12316 1951 57 NA CS CHARLIE 1951-08-17 00:00:00 TS 16.3000 -70.2000 75 hurdat_atl main 193 154 O_____________ hurdat_atl AL041951 16.3000 -70.2000 HU 75 1 15 273
1951224N12316 1951 57 NA CS CHARLIE 1951-08-17 03:00:00 TS 16.3422 -70.9651 main 151 134 P_____________ AL041951 16.3422 -70.9651 HU 77 1 14 274
1951224N12316 1951 57 NA CS CHARLIE 1951-08-17 06:00:00 TS 16.4000 -71.7000 80 hurdat_atl main 138 138 O_____________ hurdat_atl AL041951 16.4000 -71.7000 HU 80 1 14 275
1951224N12316 1951 57 NA CS CHARLIE 1951-08-17 09:00:00 TS 16.4696 -72.4003 main 162 162 P_____________ AL041951 16.4696 -72.4003 HU 82 1 14 278
1951224N12316 1951 57 NA CS CHARLIE 1951-08-17 12:00:00 TS 16.6000 -73.1000 85 978 hurdat_atl main 170 134 O_____________ hurdat_atl AL041951 16.6000 -73.1000 HU 85 978 2 14 285
1951224N12316 1951 57 NA CS CHARLIE 1951-08-17 15:00:00 TS 16.8272 -73.8350 main 134 116 P_____________ AL041951 16.8272 -73.8350 HU 90 974 2 15 289
1951224N12316 1951 57 NA CS CHARLIE 1951-08-17 18:00:00 TS 17.1000 -74.6000 95 971 hurdat_atl main 125 108 O_____________ hurdat_atl AL041951 17.1000 -74.6000 HU 95 971 2 16 289
1951224N12316 1951 57 NA CS CHARLIE 1951-08-17 21:00:00 TS 17.3398 -75.4138 main 108 33 P_____________ AL041951 17.3398 -75.4138 HU 102 3 16 288
1951224N12316 1951 57 NA CS CHARLIE 1951-08-18 00:00:00 TS 17.6000 -76.2000 110 hurdat_atl main 33 0 O_____________ hurdat_atl AL041951 17.6000 -76.2000 HU 110 3 15 292
1951224N12316 1951 57 NA CS CHARLIE 1951-08-18 03:00:00 TS 17.9000 -76.9000 110 hurdat_atl main 0 0 O_____________ hurdat_atl AL041951 17.9000 -76.9000 L HU 110 3 16 288
1951224N12316 1951 57 NA CS CHARLIE 1951-08-18 06:00:00 TS 18.1000 -77.8000 85 hurdat_atl main 0 0 O_____________ hurdat_atl AL041951 18.1000 -77.8000 HU 85 2 17 281
1951224N12316 1951 57 NA CS CHARLIE 1951-08-18 09:00:00 TS 18.2133 -78.6276 main 21 21 P_____________ AL041951 18.2133 -78.6276 HU 80 1 15 277
1951224N12316 1951 57 NA CS CHARLIE 1951-08-18 12:00:00 TS 18.3000 -79.4000 75 hurdat_atl main 106 106 O_____________ hurdat_atl AL041951 18.3000 -79.4000 HU 75 1 15 279
1951224N12316 1951 57 NA CS CHARLIE 1951-08-18 15:00:00 TS 18.4423 -80.1725 main 191 191 P_____________ AL041951 18.4423 -80.1725 HU 75 1 15 282
1951224N12316 1951 57 NA CS CHARLIE 1951-08-18 18:00:00 TS 18.6000 -80.9000 75 hurdat_atl main 267 267 O_____________ hurdat_atl AL041951 18.6000 -80.9000 HU 75 1 14 283
1951224N12316 1951 57 NA CS CHARLIE 1951-08-18 21:00:00 TS 18.7497 -81.5726 main 326 286 P_____________ AL041951 18.7497 -81.5726 HU 77 1 13 284
1951224N12316 1951 57 NA CS CHARLIE 1951-08-19 00:00:00 TS 18.9000 -82.2000 80 982 hurdat_atl main 286 268 O_____________ hurdat_atl AL041951 18.9000 -82.2000 HU 80 982 1 12 285
1951224N12316 1951 57 NA CS CHARLIE 1951-08-19 03:00:00 TS 19.0573 -82.8150 main 257 249 P_____________ AL041951 19.0573 -82.8150 HU 82 980 1 12 285
1951224N12316 1951 57 NA CS CHARLIE 1951-08-19 06:00:00 TS 19.2000 -83.4000 85 hurdat_atl main 253 252 I_____________ hurdat_atl AL041951 19.2000 -83.4000 HU 85 979 2 11 282
1951224N12316 1951 57 NA CS CHARLIE 1951-08-19 09:00:00 TS 19.2923 -83.9578 main 266 266 P_____________ AL041951 19.2923 -83.9578 HU 85 977 2 11 281
1951224N12316 1951 57 NA CS CHARLIE 1951-08-19 12:00:00 TS 19.4000 -84.5000 85 976 hurdat_atl main 268 239 O_____________ hurdat_atl AL041951 19.4000 -84.5000 HU 85 976 2 11 286
1951224N12316 1951 57 NA CS CHARLIE 1951-08-19 15:00:00 TS 19.5848 -85.0500 main 239 175 P_____________ AL041951 19.5848 -85.0500 HU 92 2 11 291
1951224N12316 1951 57 NA CS CHARLIE 1951-08-19 18:00:00 TS 19.8000 -85.6000 100 hurdat_atl main 175 122 O_____________ hurdat_atl AL041951 19.8000 -85.6000 HU 100 3 11 292
1951224N12316 1951 57 NA CS CHARLIE 1951-08-19 21:00:00 TS 20.0116 -86.1732 main 115 68 P_____________ AL041951 20.0116 -86.1732 HU 107 3 11 291
1951224N12316 1951 57 NA CS CHARLIE 1951-08-20 00:00:00 TS 20.2000 -86.7000 115 hurdat_atl main 68 38 O_____________ hurdat_atl AL041951 20.2000 -86.7000 HU 115 4 10 290
1951224N12316 1951 57 NA CS CHARLIE 1951-08-20 02:00:00 TS 20.3000 -87.0000 115 hurdat_atl main 38 15 O_____________ hurdat_atl AL041951 20.3000 -87.0000 L HU 115 4 12 290
1951224N12316 1951 57 NA CS CHARLIE 1951-08-20 03:00:00 TS 20.4000 -87.3000 115 hurdat_atl main 10 0 O_____________ hurdat_atl AL041951 20.4000 -87.3000 L HU 115 4 13 290
1951224N12316 1951 57 NA NA CHARLIE 1951-08-20 06:00:00 TS 20.6000 -87.9000 90 hurdat_atl main 0 0 O_____________ hurdat_atl AL041951 20.6000 -87.9000 HU 90 2 12 289
1951224N12316 1951 57 NA NA CHARLIE 1951-08-20 09:00:00 TS 20.8000 -88.5467 main 0 0 P_____________ AL041951 20.8000 -88.5467 HU 80 1 13 288
1951224N12316 1951 57 NA NA CHARLIE 1951-08-20 12:00:00 TS 21.0000 -89.2000 70 hurdat_atl main 0 0 O_____________ hurdat_atl AL041951 21.0000 -89.2000 HU 70 1 12 289
1951224N12316 1951 57 NA NA CHARLIE 1951-08-20 15:00:00 TS 21.2147 -89.8075 main 0 0 P_____________ AL041951 21.2147 -89.8075 HU 67 1 12 290
1951224N12316 1951 57 NA GM CHARLIE 1951-08-20 18:00:00 TS 21.4000 -90.4000 65 hurdat_atl main 35 35 O_____________ hurdat_atl AL041951 21.4000 -90.4000 HU 65 1 12 286
1951224N12316 1951 57 NA GM CHARLIE 1951-08-20 21:00:00 TS 21.5299 -91.0076 main 85 85 P_____________ AL041951 21.5299 -91.0076 HU 65 1 11 280
1951224N12316 1951 57 NA GM CHARLIE 1951-08-21 00:00:00 TS 21.6000 -91.6000 65 989 hurdat_atl main 145 145 O_____________ hurdat_atl AL041951 21.6000 -91.6000 HU 65 989 1 11 275
1951224N12316 1951 57 NA GM CHARLIE 1951-08-21 03:00:00 TS 21.6148 -92.1652 main 204 204 P_____________ AL041951 21.6148 -92.1652 HU 65 1 10 270
1951224N12316 1951 57 NA GM CHARLIE 1951-08-21 06:00:00 TS 21.6000 -92.7000 65 hurdat_atl main 254 254 O_____________ hurdat_atl AL041951 21.6000 -92.7000 HU 65 1 10 269
1951224N12316 1951 57 NA GM CHARLIE 1951-08-21 09:00:00 TS 21.6000 -93.2375 main 303 303 P_____________ AL041951 21.6000 -93.2375 HU 65 1 9 270
1951224N12316 1951 57 NA GM CHARLIE 1951-08-21 12:00:00 TS 21.6000 -93.7000 65 hurdat_atl main 339 313 O_____________ hurdat_atl AL041951 21.6000 -93.7000 HU 65 1 7 269
1951224N12316 1951 57 NA GM CHARLIE 1951-08-21 15:00:00 TS 21.5922 -94.0300 main 313 289 P_____________ AL041951 21.5922 -94.0300 HU 65 1 6 270
1951224N12316 1951 57 NA GM CHARLIE 1951-08-21 18:00:00 TS 21.6000 -94.3000 65 988 hurdat_atl main 289 266 O_____________ hurdat_atl AL041951 21.6000 -94.3000 HU 65 988 1 5 275
1951224N12316 1951 57 NA GM CHARLIE 1951-08-21 21:00:00 TS 21.6349 -94.5851 main 266 248 P_____________ AL041951 21.6349 -94.5851 HU 67 985 1 6 280
1951224N12316 1951 57 NA GM CHARLIE 1951-08-22 00:00:00 TS 21.7000 -94.9000 70 982 hurdat_atl main 248 207 O_____________ hurdat_atl AL041951 21.7000 -94.9000 HU 70 982 1 7 284
1951224N12316 1951 57 NA GM CHARLIE 1951-08-22 03:00:00 TS 21.7924 -95.2775 main 207 168 P_____________ AL041951 21.7924 -95.2775 HU 75 979 1 8 285
1951224N12316 1951 57 NA GM CHARLIE 1951-08-22 06:00:00 TS 21.9000 -95.7000 80 hurdat_atl main 168 131 I_____________ hurdat_atl AL041951 21.9000 -95.7000 HU 80 977 1 8 285
1951224N12316 1951 57 NA GM CHARLIE 1951-08-22 09:00:00 TS 22.0074 -96.1425 main 131 91 P_____________ AL041951 22.0074 -96.1425 HU 82 974 1 9 283
1951224N12316 1951 57 NA GM CHARLIE 1951-08-22 12:00:00 TS 22.1000 -96.6000 85 972 hurdat_atl main 91 68 O_____________ hurdat_atl AL041951 22.1000 -96.6000 HU 85 972 2 7 276
1951224N12316 1951 57 NA GM CHARLIE 1951-08-22 15:00:00 TS 22.0879 -96.9291 main 68 30 P_____________ AL041951 22.0879 -96.9291 HU 92 970 2 8 277
1951224N12316 1951 57 NA GM CHARLIE 1951-08-22 18:00:00 TS 22.2000 -97.5000 100 968 hurdat_atl main 30 0 O_____________ hurdat_atl AL041951 22.2000 -97.5000 HU 100 968 3 13 285
1951224N12316 1951 57 NA GM CHARLIE 1951-08-22 19:00:00 TS 22.3000 -97.8000 100 968 hurdat_atl main 0 0 O_____________ hurdat_atl AL041951 22.3000 -97.8000 L HU 100 968 3 12 286
1951224N12316 1951 57 NA NA CHARLIE 1951-08-22 21:00:00 TS 22.3667 -98.1117 main 0 0 P_____________ AL041951 22.3667 -98.1117 HU 85 2 4 270
1951224N12316 1951 57 NA NA CHARLIE 1951-08-23 00:00:00 TS 22.3000 -98.2000 65 hurdat_atl main 0 0 O_____________ hurdat_atl AL041951 22.3000 -98.2000 HU 65 1 4 267
1951224N12316 1951 57 NA NA CHARLIE 1951-08-23 03:00:00 TS 22.3491 -98.4901 main 0 0 P_____________ AL041951 22.3491 -98.4901 HU 55 0 6 280
1951224N12316 1951 57 NA NA CHARLIE 1951-08-23 06:00:00 TS 22.4000 -98.8000 45 hurdat_atl main 0 0 O_____________ hurdat_atl AL041951 22.4000 -98.8000 TS 45 0 6 276
1951224N12316 1951 57 NA NA CHARLIE 1951-08-23 09:00:00 TS 22.4075 -99.1076 main 0 0 P_____________ AL041951 22.4075 -99.1076 TS 40 0 6 270
1951224N12316 1951 57 NA NA CHARLIE 1951-08-23 12:00:00 TS 22.4000 -99.4000 35 hurdat_atl main 0 0 O_____________ hurdat_atl AL041951 22.4000 -99.4000 TS 35 0 5 269
1951224N12316 1951 57 NA NA CHARLIE 1951-08-23 15:00:00 TS 22.3975 -99.6600 main 0 0 P_____________ AL041951 22.3975 -99.6600 TS 30 -1 5 270
1951224N12316 1951 57 NA NA CHARLIE 1951-08-23 18:00:00 TS 22.4000 -99.9000 25 hurdat_atl main 0 O_____________ hurdat_atl AL041951 22.4000 -99.9000 TD 25 -1 4 271

IBTrACS Databaseについて

本データベースは、米国NOAAが公開する1842年以降の世界の熱帯低気圧のベストトラックデータアーカイブInternational Best Track Archive for Climate Stewardship (IBTrACS)を、ウェブで閲覧しやすい形式に変換したものです。

最終更新日:2021-10-08